createdAt,value
2022-12-27T00:01:00.615Z,1.4
2022-12-27T00:04:02.529Z,1.2
2022-12-27T00:07:04.481Z,1.2
2022-12-27T00:10:06.448Z,2.1
2022-12-27T00:13:08.433Z,1.3
2022-12-27T00:16:10.453Z,1.6
2022-12-27T00:19:12.345Z,1.6
2022-12-27T00:22:14.340Z,1.5
2022-12-27T00:25:16.289Z,1.4
2022-12-27T00:28:18.282Z,1.6
2022-12-27T00:31:20.272Z,1.8
2022-12-27T00:34:22.207Z,2.2
2022-12-27T00:37:24.147Z,1.9
2022-12-27T00:40:26.161Z,1.8
2022-12-27T00:43:28.093Z,2.3
2022-12-27T00:46:30.064Z,2
2022-12-27T00:49:32.015Z,2
2022-12-27T00:52:33.991Z,2.3
2022-12-27T00:55:35.960Z,1.9
2022-12-27T00:58:40.776Z,2.2
2022-12-27T01:01:39.970Z,2
2022-12-27T01:04:41.860Z,1.9
2022-12-27T01:07:43.798Z,2.1
2022-12-27T01:10:45.825Z,2.2
2022-12-27T01:13:47.720Z,2
2022-12-27T01:16:49.743Z,2.4
2022-12-27T01:19:51.628Z,2
2022-12-27T01:22:53.593Z,2.2
2022-12-27T01:25:55.563Z,1.8
2022-12-27T01:28:57.538Z,1.9
2022-12-27T01:31:59.546Z,1.7
2022-12-27T01:35:01.492Z,2.2
2022-12-27T01:38:03.445Z,1.7
2022-12-27T01:41:05.402Z,1.7
2022-12-27T01:44:07.383Z,1.9
2022-12-27T01:47:09.333Z,1.5
2022-12-27T01:50:11.285Z,1.6
2022-12-27T01:53:13.255Z,1.8
2022-12-27T01:56:15.225Z,1.5
2022-12-27T01:59:17.183Z,1.4
2022-12-27T02:02:19.154Z,1.4
2022-12-27T02:05:21.115Z,1.5
2022-12-27T02:08:23.049Z,2
2022-12-27T02:11:25.016Z,1.4
2022-12-27T02:14:28.180Z,1.2
2022-12-27T02:17:29.006Z,1.6
2022-12-27T02:20:30.971Z,1.7
2022-12-27T02:23:37.826Z,1.3
2022-12-27T02:26:34.884Z,1.5
2022-12-27T02:29:36.839Z,1.4
2022-12-27T02:32:38.847Z,1.2
2022-12-27T02:35:40.775Z,1.3
2022-12-27T02:38:42.735Z,1.5
2022-12-27T02:41:44.683Z,1.4
2022-12-27T02:44:46.687Z,1.2
2022-12-27T02:47:48.656Z,1.2
2022-12-27T02:50:50.611Z,1.3
2022-12-27T02:53:52.563Z,1.2
2022-12-27T02:56:54.520Z,1.1
2022-12-27T02:59:56.476Z,1.2
2022-12-27T03:02:58.548Z,1.1
2022-12-27T03:06:00.391Z,1.3
2022-12-27T03:09:02.387Z,0.9
2022-12-27T03:12:04.337Z,1
2022-12-27T03:15:06.307Z,1.5
2022-12-27T03:18:08.265Z,1
2022-12-27T03:21:10.251Z,0.9
2022-12-27T03:24:12.205Z,1
2022-12-27T03:27:14.171Z,1.1
2022-12-27T03:30:16.117Z,1
2022-12-27T03:33:18.110Z,1.1
2022-12-27T03:36:20.082Z,1.1
2022-12-27T03:39:22.028Z,1.1
2022-12-27T03:42:23.988Z,1.1
2022-12-27T03:45:25.938Z,1.7
2022-12-27T03:48:27.912Z,1.1
2022-12-27T03:51:29.868Z,0.9
2022-12-27T03:54:31.822Z,0.9
2022-12-27T03:57:33.775Z,0.9
2022-12-27T04:00:35.787Z,1.1
2022-12-27T04:03:37.846Z,1
2022-12-27T04:06:39.652Z,0.9
2022-12-27T04:09:41.618Z,0.9
2022-12-27T04:12:43.614Z,0.9
2022-12-27T04:15:45.585Z,0.9
2022-12-27T04:18:47.556Z,1.2
2022-12-27T04:21:49.482Z,0.9
2022-12-27T04:24:51.466Z,1.1
2022-12-27T04:27:53.627Z,1
2022-12-27T04:30:55.451Z,0.8
2022-12-27T04:33:57.407Z,1.1
2022-12-27T04:36:59.346Z,1.1
2022-12-27T04:40:01.347Z,1.3
2022-12-27T04:43:03.278Z,1.1
2022-12-27T04:46:05.259Z,1
2022-12-27T04:49:07.205Z,1.2
2022-12-27T04:52:09.167Z,1.2
2022-12-27T04:55:11.155Z,0.8
2022-12-27T04:58:13.096Z,1.1
2022-12-27T05:01:15.053Z,1.2
2022-12-27T05:04:17.057Z,1.3
2022-12-27T05:07:19.117Z,1.1
2022-12-27T05:10:20.976Z,1.5
2022-12-27T05:13:22.930Z,1.4
2022-12-27T05:16:24.912Z,1.1
2022-12-27T05:19:26.848Z,1.1
2022-12-27T05:22:28.807Z,1.2
2022-12-27T05:25:30.764Z,1.1
2022-12-27T05:28:32.725Z,1.2
2022-12-27T05:31:34.777Z,1.5
2022-12-27T05:34:36.648Z,1.3
2022-12-27T05:37:38.604Z,1.3
2022-12-27T05:40:40.573Z,1.5
2022-12-27T05:43:42.534Z,1.4
2022-12-27T05:46:44.601Z,1.5
2022-12-27T05:49:46.463Z,1.7
2022-12-27T05:52:48.437Z,1.5
2022-12-27T05:55:50.381Z,1.4
2022-12-27T05:58:52.341Z,1.6
2022-12-27T06:01:54.459Z,1.9
2022-12-27T06:04:56.268Z,1.3
2022-12-27T06:07:58.223Z,1.4
2022-12-27T06:11:00.171Z,1.7
2022-12-27T06:14:02.149Z,2.1
2022-12-27T06:17:04.098Z,1.8
2022-12-27T06:20:06.057Z,1.9
2022-12-27T06:23:08.041Z,1.6
2022-12-27T06:26:09.999Z,1.8
2022-12-27T06:29:11.962Z,1.9
2022-12-27T06:32:13.937Z,2
2022-12-27T06:35:15.883Z,2.8
2022-12-27T06:38:17.856Z,2.3
2022-12-27T06:41:19.808Z,2.1
2022-12-27T06:44:21.775Z,2
2022-12-27T06:47:23.745Z,1.9
2022-12-27T06:50:25.701Z,2.2
2022-12-27T06:53:27.670Z,2.1
2022-12-27T06:56:29.617Z,1.9
2022-12-27T06:59:31.598Z,2.1
2022-12-27T07:02:33.731Z,2.7
2022-12-27T07:05:35.499Z,2.4
2022-12-27T07:08:37.496Z,2.1
2022-12-27T07:11:39.447Z,2.4
2022-12-27T07:14:41.408Z,4
2022-12-27T07:17:43.364Z,2.8
2022-12-27T07:20:45.321Z,3.6
2022-12-27T07:23:47.293Z,3.6
2022-12-27T07:26:49.232Z,2.7
2022-12-27T07:29:51.205Z,2.7
2022-12-27T07:32:53.161Z,2.2
2022-12-27T07:35:55.134Z,2.1
2022-12-27T07:38:57.242Z,2.5
2022-12-27T07:42:03.312Z,2.1
2022-12-27T07:45:01.065Z,2.8
2022-12-27T07:48:03.000Z,2.6
2022-12-27T07:51:04.946Z,2.7
2022-12-27T07:54:06.909Z,2.6
2022-12-27T07:57:08.891Z,2.4
2022-12-27T08:00:10.887Z,2.7
2022-12-27T08:03:12.836Z,2.3
2022-12-27T08:06:14.764Z,3.4
2022-12-27T08:09:16.838Z,2.9
2022-12-27T08:12:18.710Z,3
2022-12-27T08:15:20.679Z,2.5
2022-12-27T08:18:22.648Z,2.3
2022-12-27T08:21:24.598Z,2.7
2022-12-27T08:24:26.607Z,2.9
2022-12-27T08:27:28.573Z,3.3
2022-12-27T08:30:30.611Z,2.8
2022-12-27T08:33:32.508Z,2.8
2022-12-27T08:36:54.493Z,2.8
2022-12-27T08:39:36.398Z,2.9
2022-12-27T08:42:38.346Z,3.3
2022-12-27T08:45:40.321Z,2.9
2022-12-27T08:48:42.338Z,3.4
2022-12-27T08:51:44.219Z,3.7
2022-12-27T08:54:46.209Z,3.2
2022-12-27T08:57:48.177Z,3
2022-12-27T09:00:50.109Z,2.5
2022-12-27T09:03:52.106Z,2.7
2022-12-27T09:06:54.052Z,2.9
2022-12-27T09:09:56.025Z,3.4
2022-12-27T09:12:57.992Z,4.3
2022-12-27T09:15:59.980Z,3.3
2022-12-27T09:19:01.928Z,3.7
2022-12-27T09:22:03.879Z,3.9
2022-12-27T09:25:05.961Z,3.6
2022-12-27T09:28:07.821Z,3.9
2022-12-27T09:31:09.819Z,2.6
2022-12-27T09:34:11.780Z,2.8
2022-12-27T09:37:13.709Z,2.9
2022-12-27T09:40:15.668Z,2.9
2022-12-27T09:43:24.053Z,2.6
2022-12-27T09:46:19.654Z,2.6
2022-12-27T09:49:21.567Z,2.6
2022-12-27T09:52:23.529Z,3.1
2022-12-27T09:55:25.492Z,2.9
2022-12-27T09:58:27.457Z,2.6
2022-12-27T10:01:29.532Z,3
2022-12-27T10:04:52.811Z,2.8
2022-12-27T10:07:33.355Z,2.7
2022-12-27T10:10:35.324Z,3.5
2022-12-27T10:13:37.305Z,3.1
2022-12-27T10:16:39.237Z,2.5
2022-12-27T10:19:41.203Z,2.7
2022-12-27T10:22:43.173Z,2.5
2022-12-27T10:25:45.148Z,2.3
2022-12-27T10:28:47.101Z,2.6
2022-12-27T10:31:49.038Z,1.9
2022-12-27T10:34:51.037Z,3.1
2022-12-27T10:37:52.949Z,2.3
2022-12-27T10:40:54.918Z,2.7
2022-12-27T10:43:56.887Z,2.6
2022-12-27T10:46:58.875Z,3.4
2022-12-27T10:50:00.831Z,2.5
2022-12-27T10:53:02.751Z,2.6
2022-12-27T10:56:04.715Z,3.1
2022-12-27T10:59:06.688Z,2.8
2022-12-27T11:02:08.722Z,2.7
2022-12-27T11:05:10.602Z,2.7
2022-12-27T11:08:12.575Z,3.4
2022-12-27T11:11:14.519Z,2.9
2022-12-27T11:14:16.496Z,3.2
2022-12-27T11:17:18.446Z,3.2
2022-12-27T11:20:20.407Z,3.1
2022-12-27T11:23:22.367Z,2.8
2022-12-27T11:26:24.324Z,3
2022-12-27T11:29:26.368Z,2.4
2022-12-27T11:32:28.245Z,3.1
2022-12-27T11:35:30.228Z,3
2022-12-27T11:38:32.187Z,3.7
2022-12-27T11:41:34.146Z,2.5
2022-12-27T11:44:36.110Z,3.6
2022-12-27T11:47:38.046Z,2.6
2022-12-27T11:50:40.037Z,3.6
2022-12-27T11:53:42.014Z,3.5
2022-12-27T11:56:43.958Z,4.5
2022-12-27T11:59:45.924Z,3.9
2022-12-27T12:02:48.032Z,4.7
2022-12-27T12:05:49.848Z,3.6
2022-12-27T12:08:51.831Z,3.3
2022-12-27T12:11:55.271Z,3.5
2022-12-27T12:14:55.767Z,3.7
2022-12-27T12:17:57.730Z,3
2022-12-27T12:20:59.675Z,4.1
2022-12-27T12:24:01.670Z,3.4
2022-12-27T12:27:03.633Z,3.2
2022-12-27T12:30:05.586Z,3
2022-12-27T12:33:07.544Z,3.8
2022-12-27T12:36:09.519Z,4.3
2022-12-27T12:39:11.481Z,3.9
2022-12-27T12:42:13.445Z,3.7
2022-12-27T12:45:15.426Z,4.2
2022-12-27T12:48:17.387Z,3.6
2022-12-27T12:51:19.359Z,3.5
2022-12-27T12:54:21.319Z,3.5
2022-12-27T12:57:23.290Z,2.9
2022-12-27T13:00:25.253Z,3
2022-12-27T13:03:27.356Z,2.4
2022-12-27T13:06:29.187Z,3.3
2022-12-27T13:09:31.164Z,3.2
2022-12-27T13:12:33.121Z,3.1
2022-12-27T13:15:35.078Z,4.9
2022-12-27T13:18:37.066Z,7.4
2022-12-27T13:21:39.026Z,3.9
2022-12-27T13:24:40.975Z,5.5
2022-12-27T13:27:42.948Z,3.2
2022-12-27T13:30:44.932Z,3.5
2022-12-27T13:33:46.891Z,2.9
2022-12-27T13:36:48.856Z,2.5
2022-12-27T13:39:50.809Z,2.5
2022-12-27T13:42:52.781Z,2.5
2022-12-27T13:45:54.761Z,2
2022-12-27T13:48:56.732Z,2.3
2022-12-27T13:51:58.670Z,2.4
2022-12-27T13:55:00.645Z,2.6
2022-12-27T13:58:02.646Z,2.3
2022-12-27T14:01:04.597Z,2.8
2022-12-27T14:04:06.551Z,2.7
2022-12-27T14:07:08.519Z,2.4
2022-12-27T14:10:10.469Z,3.5
2022-12-27T14:13:12.440Z,2.6
2022-12-27T14:16:14.466Z,2.4
2022-12-27T14:19:16.347Z,3
2022-12-27T14:22:18.340Z,2.8
2022-12-27T14:25:20.272Z,2.8
2022-12-27T14:28:22.254Z,3.1
2022-12-27T14:31:24.381Z,3.8
2022-12-27T14:34:26.169Z,3
2022-12-27T14:37:28.134Z,2.6
2022-12-27T14:40:34.776Z,3
2022-12-27T14:43:32.055Z,2.5
2022-12-27T14:46:34.035Z,2.7
2022-12-27T14:49:35.957Z,2.9
2022-12-27T14:52:37.927Z,2.9
2022-12-27T14:55:39.868Z,3
2022-12-27T14:58:41.842Z,2.4
2022-12-27T15:01:43.885Z,3.2
2022-12-27T15:04:45.769Z,3
2022-12-27T15:07:47.727Z,3.1
2022-12-27T15:10:49.716Z,2.7
2022-12-27T15:13:51.694Z,3
2022-12-27T15:16:53.630Z,2.4
2022-12-27T15:19:55.704Z,3.2
2022-12-27T15:22:57.577Z,3.2
2022-12-27T15:25:59.523Z,2.6
2022-12-27T15:29:01.498Z,2.7
2022-12-27T15:32:03.481Z,2.8
2022-12-27T15:35:05.454Z,3.2
2022-12-27T15:38:07.387Z,2.9
2022-12-27T15:41:09.371Z,2.1
2022-12-27T15:44:11.337Z,3
2022-12-27T15:47:13.272Z,2.4
2022-12-27T15:50:15.263Z,2.8
2022-12-27T15:53:17.209Z,3.1
2022-12-27T15:56:19.182Z,2.9
2022-12-27T15:59:21.151Z,3.2
2022-12-27T16:02:23.160Z,2.2
2022-12-27T16:05:25.077Z,2.2
2022-12-27T16:08:27.051Z,4.1
2022-12-27T16:11:29.018Z,6.5
2022-12-27T16:14:30.984Z,4
2022-12-27T16:17:32.937Z,3.4
2022-12-27T16:20:34.888Z,3
2022-12-27T16:23:36.836Z,2.7
2022-12-27T16:26:38.807Z,2.6
2022-12-27T16:29:40.768Z,3.2
2022-12-27T16:32:42.725Z,2.7
2022-12-27T16:35:44.658Z,2.4
2022-12-27T16:38:46.633Z,2.5
2022-12-27T16:41:48.640Z,2.8
2022-12-27T16:44:50.616Z,2.7
2022-12-27T16:47:52.548Z,3
2022-12-27T16:50:54.871Z,2.8
2022-12-27T16:53:56.486Z,2.7
2022-12-27T16:56:58.431Z,2.3
2022-12-27T17:00:00.409Z,2.6
2022-12-27T17:03:02.408Z,2.7
2022-12-27T17:06:33.438Z,3
2022-12-27T17:09:06.298Z,2.5
2022-12-27T17:12:08.248Z,2.8
2022-12-27T17:15:10.382Z,2.6
2022-12-27T17:18:12.170Z,3.3
2022-12-27T17:21:14.166Z,3.5
2022-12-27T17:24:16.116Z,2.8
2022-12-27T17:27:18.081Z,2.9
2022-12-27T17:30:20.068Z,3.2
2022-12-27T17:33:22.035Z,2.9
2022-12-27T17:36:23.981Z,3.8
2022-12-27T17:39:25.936Z,6.2
2022-12-27T17:42:27.893Z,5.1
2022-12-27T17:45:29.883Z,4
2022-12-27T17:48:31.833Z,4
2022-12-27T17:51:33.817Z,3.7
2022-12-27T17:54:35.747Z,3.6
2022-12-27T17:57:37.751Z,3.1
2022-12-27T18:00:39.691Z,3.3
2022-12-27T18:03:41.627Z,2.7
2022-12-27T18:06:43.605Z,2.8
2022-12-27T18:09:45.568Z,3.2
2022-12-27T18:12:47.494Z,2.7
2022-12-27T18:15:49.485Z,2.3
2022-12-27T18:18:51.435Z,3.2
2022-12-27T18:21:53.414Z,2.1
2022-12-27T18:24:55.362Z,3
2022-12-27T18:27:57.326Z,2.4
2022-12-27T18:30:59.312Z,2.8
2022-12-27T18:34:01.276Z,2.9
2022-12-27T18:37:03.235Z,2.5
2022-12-27T18:40:05.199Z,3.3
2022-12-27T18:43:07.176Z,2.8
2022-12-27T18:46:09.189Z,2.7
2022-12-27T18:49:11.159Z,2.5
2022-12-27T18:52:13.083Z,2.7
2022-12-27T18:55:15.031Z,2.4
2022-12-27T18:58:20.379Z,3
2022-12-27T19:01:19.048Z,2.7
2022-12-27T19:04:20.935Z,3
2022-12-27T19:07:22.898Z,2.8
2022-12-27T19:10:24.859Z,3.2
2022-12-27T19:13:26.815Z,2.4
2022-12-27T19:16:28.827Z,2.8
2022-12-27T19:19:30.779Z,2.6
2022-12-27T19:22:32.719Z,3.1
2022-12-27T19:25:34.716Z,2.7
2022-12-27T19:28:36.630Z,3.2
2022-12-27T19:31:38.603Z,2.8
2022-12-27T19:34:40.570Z,2.9
2022-12-27T19:37:42.529Z,2.9
2022-12-27T19:40:44.489Z,3.1
2022-12-27T19:43:46.491Z,2.6
2022-12-27T19:46:48.435Z,2.3
2022-12-27T19:49:50.407Z,2.5
2022-12-27T19:52:52.367Z,2.6
2022-12-27T19:55:54.328Z,2.8
2022-12-27T19:58:56.312Z,2.4
2022-12-27T20:01:58.403Z,2.5
2022-12-27T20:05:00.228Z,2.7
2022-12-27T20:08:02.223Z,2.3
2022-12-27T20:11:04.165Z,2.2
2022-12-27T20:14:06.196Z,2.3
2022-12-27T20:17:08.116Z,2.7
2022-12-27T20:20:10.084Z,2.7
2022-12-27T20:23:12.029Z,3.9
2022-12-27T20:26:14.025Z,2.7
2022-12-27T20:29:15.990Z,3.2
2022-12-27T20:32:17.967Z,3.6
2022-12-27T20:35:19.918Z,3.5
2022-12-27T20:38:21.877Z,3.4
2022-12-27T20:41:23.919Z,4
2022-12-27T20:44:25.812Z,3.7
2022-12-27T20:47:27.779Z,4.4
2022-12-27T20:50:29.744Z,3.7
2022-12-27T20:53:31.723Z,4.5
2022-12-27T20:56:33.677Z,4.8
2022-12-27T20:59:35.647Z,5.1
2022-12-27T21:02:37.675Z,3.7
2022-12-27T21:05:39.492Z,3.7
2022-12-27T21:05:39.680Z,4.5
2022-12-27T21:08:46.971Z,3.7
2022-12-27T21:11:43.452Z,4.3
2022-12-27T21:14:45.433Z,3.9
2022-12-27T21:17:47.385Z,3.9
2022-12-27T21:20:49.376Z,4
2022-12-27T21:23:51.337Z,3.6
2022-12-27T21:26:56.347Z,3.5
2022-12-27T21:29:55.275Z,3.9
2022-12-27T21:32:57.201Z,4
2022-12-27T21:35:59.174Z,4.2
2022-12-27T21:39:01.120Z,4.5
2022-12-27T21:42:03.084Z,5.1
2022-12-27T21:45:05.116Z,4
2022-12-27T21:48:07.005Z,5
2022-12-27T21:51:08.964Z,3.9
2022-12-27T21:54:10.940Z,4.8
2022-12-27T21:57:12.900Z,5
2022-12-27T22:00:14.859Z,4.5
2022-12-27T22:03:17.033Z,5.1
2022-12-27T22:06:18.823Z,4.3
2022-12-27T22:09:20.776Z,4
2022-12-27T22:12:22.736Z,4.7
2022-12-27T22:15:24.691Z,4.9
2022-12-27T22:18:26.679Z,4.9
2022-12-27T22:21:28.632Z,4.2
2022-12-27T22:24:30.589Z,4
2022-12-27T22:27:32.559Z,3.9
2022-12-27T22:30:34.521Z,4.4
2022-12-27T22:33:36.503Z,4
2022-12-27T22:36:38.424Z,4.3
2022-12-27T22:39:40.394Z,4.2
2022-12-27T22:42:42.370Z,4.5
2022-12-27T22:45:47.665Z,4.1
2022-12-27T22:48:46.281Z,3.8
2022-12-27T22:51:48.227Z,3.8
2022-12-27T22:55:03.537Z,4.1
2022-12-27T22:57:52.138Z,3.7
2022-12-27T23:00:54.094Z,3.9
2022-12-27T23:03:56.055Z,3.7
2022-12-27T23:06:58.054Z,3.5
2022-12-27T23:09:59.981Z,3.8
2022-12-27T23:13:01.963Z,3.2
2022-12-27T23:16:03.955Z,3.5
2022-12-27T23:19:05.913Z,3.4
2022-12-27T23:22:07.825Z,3.3
2022-12-27T23:25:09.784Z,4.1
2022-12-27T23:28:11.760Z,3.8
2022-12-27T23:31:13.719Z,3.6
2022-12-27T23:34:15.666Z,3.9
2022-12-27T23:37:17.624Z,3.7
2022-12-27T23:40:19.565Z,3.6
2022-12-27T23:43:50.909Z,3.5
2022-12-27T23:46:23.584Z,4
2022-12-27T23:49:25.449Z,3.9
2022-12-27T23:52:27.401Z,3.8
2022-12-27T23:55:29.360Z,3.3
2022-12-27T23:58:31.324Z,3.9
